Huvudsida
METAR-TAF:

METAR-TAF

Flygplatser :

Bagdads internationella flygplats

Bagdad, Irak

latitud: 33-15-45N, longitud: 44-14-04E, höjd: 35 m

Aktuellt väderrapport

Denna rapport gjordes för 31 minuter sedan, klockan 19:00 UTC
Stilla vind
Temperatur 17°C
Fuktighet 42%
Tryck 1017 hPa
Sikt 10 km eller mer
Inga moln under 1 500 m eller inga cumulonimbus

METAR: ORBI 111900Z 00000KT CAVOK 17/04 Q1017

Tid: 22:31 (19:31 UTC)

Väderprognos

Denna rapport gjordes för 10 timmar och 31 minuter sedan, klockan 09:00 UTC
Prognos gäller från 11 kl. 12 UTC till 12 kl. 12 UTC
Vind 3 kt varierande vindriktning
Sikt 10 km eller mer
Inga moln under 1 500 m eller inga cumulonimbus

TAF: ORBI 110900Z 1112/1212 VRB03KT CAVOK

Aktuella väderrapporter och prognoser från 4000 flygplatser (METAR- och TAF-rapporter).

De tillgängliga stationerna syns som gula och röda prickar på kartan.

För musen över prickarna för att se namnen på stationerna.

Klicka sedan för att få väderrapporter och prognoser.

För att ändra kartan: Klicka på de gröna knapparna med ett svart kors på för att zooma in; den gröna knappen med ett streck på för att zooma ut; eller på de gröna pilarna för angränsande kartor.


METAR-TAF: